createdAt,value
2023-04-18T00:00:12.457Z,100765.09
2023-04-18T00:05:44.257Z,100763.66
2023-04-18T00:11:12.037Z,100769.22
2023-04-18T00:16:39.796Z,100769.34
2023-04-18T00:22:07.421Z,100767.28
2023-04-18T00:27:36.016Z,100762.25
2023-04-18T00:33:04.646Z,100765.19
2023-04-18T00:38:31.668Z,100773.75
2023-04-18T00:43:58.886Z,100772.41
2023-04-18T00:49:27.356Z,100769.22
2023-04-18T00:54:55.214Z,100757.81
2023-04-18T01:00:23.004Z,100757.81
2023-04-18T01:05:50.363Z,100760.84
2023-04-18T01:11:17.856Z,100753.19
2023-04-18T01:16:51.216Z,100756.22
2023-04-18T01:22:20.807Z,100754.63
2023-04-18T01:27:48.219Z,100761.22
2023-04-18T01:33:16.570Z,100760.38
2023-04-18T01:38:47.244Z,100758.34
2023-04-18T01:44:15.304Z,100753.44
2023-04-18T01:49:48.262Z,100762.78
2023-04-18T01:55:16.171Z,100761.63
2023-04-18T02:00:44.735Z,100759.13
2023-04-18T02:06:12.026Z,100754.84
2023-04-18T02:11:39.180Z,100756.28
2023-04-18T02:17:07.355Z,100756.63
2023-04-18T02:22:36.417Z,100742.53
2023-04-18T02:28:04.583Z,100755.25
2023-04-18T02:33:31.798Z,100750.28
2023-04-18T02:38:59.098Z,100745.88
2023-04-18T02:44:26.397Z,100751.34
2023-04-18T02:49:53.873Z,100748.75
2023-04-18T02:55:22.974Z,100754.63
2023-04-18T03:00:54.681Z,100772.81
2023-04-18T03:06:44.997Z,100758.09
2023-04-18T03:12:12.335Z,100767.09
2023-04-18T03:17:41.783Z,100763.22
2023-04-18T03:23:09.453Z,100754.75
2023-04-18T03:28:37.516Z,100762.94
2023-04-18T03:34:06.407Z,100757.34
2023-04-18T03:39:34.607Z,100756.91
2023-04-18T03:45:02.357Z,100754.06
2023-04-18T03:50:33.510Z,100755.69
2023-04-18T03:56:02.186Z,100760.19
2023-04-18T04:01:46.182Z,100764.84
2023-04-18T04:07:15.394Z,100761.94
2023-04-18T04:12:42.555Z,100769.06
2023-04-18T04:18:10.493Z,100771.84
2023-04-18T04:23:44.544Z,100782.09
2023-04-18T04:29:21.777Z,100779.88
2023-04-18T04:34:49.730Z,100780.88
2023-04-18T04:40:17.834Z,100792.63
2023-04-18T04:45:53.356Z,100796.44
2023-04-18T04:51:25.136Z,100797.19
2023-04-18T04:56:52.812Z,100790.41
2023-04-18T05:02:23.555Z,100801.69
2023-04-18T05:07:51.798Z,100794.16
2023-04-18T05:13:19.586Z,100800.22
2023-04-18T05:18:50.748Z,100806.25
2023-04-18T05:24:18.920Z,100809.59
2023-04-18T05:29:48.105Z,100808.38
2023-04-18T05:35:15.631Z,100819.50
2023-04-18T05:40:43.661Z,100815.53
2023-04-18T05:46:12.784Z,100823.47
2023-04-18T05:51:39.508Z,100826.09
2023-04-18T05:57:06.571Z,100820.03
2023-04-18T06:02:34.005Z,100824.94
2023-04-18T06:08:02.093Z,100827.69
2023-04-18T06:13:29.932Z,100821.13
2023-04-18T06:19:00.933Z,100828.91
2023-04-18T06:24:30.757Z,100835.06
2023-04-18T06:29:58.939Z,100841.03
2023-04-18T06:35:27.071Z,100845.66
2023-04-18T06:40:54.532Z,100849.31
2023-04-18T06:46:21.882Z,100856.50
2023-04-18T06:51:48.822Z,100864.97
2023-04-18T06:57:16.439Z,100868.94
2023-04-18T07:02:44.039Z,100870.03
2023-04-18T07:08:11.840Z,100879.13
2023-04-18T07:13:39.348Z,100877.59
2023-04-18T07:19:07.165Z,100873.97
2023-04-18T07:24:34.786Z,100882.22
2023-04-18T07:30:02.575Z,100877.94
2023-04-18T07:35:29.935Z,100896.88
2023-04-18T07:40:58.498Z,100890.22
2023-04-18T07:46:26.479Z,100890.75
2023-04-18T07:51:54.104Z,100894.81
2023-04-18T07:57:22.011Z,100901.00
2023-04-18T08:02:49.447Z,100907.59
2023-04-18T08:08:17.339Z,100913.13
2023-04-18T08:13:45.030Z,100912.31
2023-04-18T08:19:12.546Z,100920.59
2023-04-18T08:24:42.888Z,100923.16
2023-04-18T08:30:16.032Z,100922.63
2023-04-18T08:35:43.353Z,100930.56
2023-04-18T08:41:11.049Z,100939.94
2023-04-18T08:46:38.576Z,100938.09
2023-04-18T08:52:14.983Z,100940.50
2023-04-18T08:57:42.238Z,100940.69
2023-04-18T09:03:15.789Z,100935.66
2023-04-18T09:08:44.654Z,100931.75
2023-04-18T09:14:24.862Z,100944.00
2023-04-18T09:19:54.725Z,100934.50
2023-04-18T09:25:45.490Z,100937.25
2023-04-18T09:31:14.731Z,100932.38
2023-04-18T09:36:42.246Z,100942.66
2023-04-18T09:42:10.712Z,100935.56
2023-04-18T09:47:38.379Z,100938.69
2023-04-18T09:53:07.923Z,100938.31
2023-04-18T09:58:41.376Z,100945.16
2023-04-18T10:04:10.322Z,100938.13
2023-04-18T10:09:39.718Z,100934.69
2023-04-18T10:15:09.390Z,100932.19
2023-04-18T10:20:36.688Z,100951.19
2023-04-18T10:26:06.084Z,100935.06
2023-04-18T10:31:39.477Z,100930.94
2023-04-18T10:37:07.365Z,100926.53
2023-04-18T10:42:52.743Z,100919.88
2023-04-18T10:48:30.295Z,100921.88
2023-04-18T10:54:00.652Z,100918.28
2023-04-18T10:59:30.381Z,100902.94
2023-04-18T11:05:02.477Z,100898.63
2023-04-18T11:10:29.732Z,100903.00
2023-04-18T11:15:57.779Z,100911.09
2023-04-18T11:21:30.404Z,100909.44
2023-04-18T11:26:58.676Z,100912.88
2023-04-18T11:32:25.789Z,100917.59
2023-04-18T11:37:54.890Z,100907.88
2023-04-18T11:43:25.091Z,100917.28
2023-04-18T11:48:52.600Z,100912.38
2023-04-18T11:54:39.425Z,100896.31
2023-04-18T12:00:10.467Z,100910.34
2023-04-18T12:05:38.895Z,100899.91
2023-04-18T12:11:06.847Z,100904.16
2023-04-18T12:16:34.008Z,100903.94
2023-04-18T12:22:06.911Z,100899.00
2023-04-18T12:27:53.880Z,100898.75
2023-04-18T12:33:22.033Z,100899.75
2023-04-18T12:38:50.089Z,100906.91
2023-04-18T12:44:17.857Z,100903.34
2023-04-18T12:49:44.678Z,100905.19
2023-04-18T12:55:12.696Z,100899.25
2023-04-18T13:00:40.191Z,100899.00
2023-04-18T13:06:08.226Z,100889.00
2023-04-18T13:11:35.962Z,100895.41
2023-04-18T13:17:03.133Z,100883.63
2023-04-18T13:22:31.857Z,100885.31
2023-04-18T13:28:01.191Z,100871.25
2023-04-18T13:33:28.809Z,100883.63
2023-04-18T13:38:56.153Z,100886.72
2023-04-18T13:44:25.298Z,100884.50
2023-04-18T13:49:53.600Z,100890.81
2023-04-18T13:55:21.376Z,100893.94
2023-04-18T14:00:49.179Z,100886.31
2023-04-18T14:06:17.617Z,100884.88
2023-04-18T14:11:45.746Z,100892.22
2023-04-18T14:17:13.434Z,100889.97
2023-04-18T14:22:40.989Z,100887.31
2023-04-18T14:28:11.049Z,100878.31
2023-04-18T14:33:39.132Z,100894.59
2023-04-18T14:39:07.629Z,100879.19
2023-04-18T14:44:35.247Z,100880.22
2023-04-18T14:50:03.255Z,100876.63
2023-04-18T14:55:31.609Z,100875.94
2023-04-18T15:01:00.422Z,100866.84
2023-04-18T15:06:28.736Z,100868.13
2023-04-18T15:11:58.466Z,100865.09
2023-04-18T15:17:26.699Z,100864.13
2023-04-18T15:22:54.658Z,100861.38
2023-04-18T15:28:22.234Z,100877.91
2023-04-18T15:33:49.431Z,100862.22
2023-04-18T15:39:21.950Z,100859.75
2023-04-18T15:44:50.919Z,100862.56
2023-04-18T15:50:18.604Z,100866.16
2023-04-18T15:55:47.167Z,100866.38
2023-04-18T16:01:16.153Z,100864.88
2023-04-18T16:06:44.091Z,100862.97
2023-04-18T16:12:11.414Z,100873.09
2023-04-18T16:17:39.434Z,100865.72
2023-04-18T16:23:06.334Z,100868.41
2023-04-18T16:28:37.867Z,100864.63
2023-04-18T16:34:05.254Z,100863.94
2023-04-18T16:39:32.754Z,100856.44
2023-04-18T16:45:04.387Z,100868.69
2023-04-18T16:50:31.649Z,100862.88
2023-04-18T16:56:01.068Z,100870.28
2023-04-18T17:01:28.275Z,100865.09
2023-04-18T17:06:56.949Z,100870.38
2023-04-18T17:12:24.510Z,100872.06
2023-04-18T17:17:51.578Z,100861.13
2023-04-18T17:23:18.882Z,100869.94
2023-04-18T17:28:46.502Z,100872.31
2023-04-18T17:34:13.749Z,100872.06
2023-04-18T17:39:41.857Z,100866.78
2023-04-18T17:45:11.164Z,100869.16
2023-04-18T17:50:38.870Z,100874.78
2023-04-18T17:56:06.839Z,100870.09
2023-04-18T18:01:35.049Z,100871.66
2023-04-18T18:07:02.777Z,100881.13
2023-04-18T18:12:30.992Z,100883.13
2023-04-18T18:17:59.442Z,100879.16
2023-04-18T18:23:27.481Z,100882.88
2023-04-18T18:28:54.980Z,100882.19
2023-04-18T18:34:22.888Z,100884.72
2023-04-18T18:39:50.874Z,100882.94
2023-04-18T18:45:19.934Z,100874.13
2023-04-18T18:50:48.320Z,100878.28
2023-04-18T18:56:16.079Z,100882.44
2023-04-18T19:01:44.233Z,100872.66
2023-04-18T19:07:12.086Z,100871.72
2023-04-18T19:12:40.162Z,100874.34
2023-04-18T19:18:07.937Z,100872.13
2023-04-18T19:23:36.228Z,100871.66
2023-04-18T19:29:03.931Z,100869.69
2023-04-18T19:34:31.261Z,100862.97
2023-04-18T19:39:58.960Z,100862.56
2023-04-18T19:45:28.341Z,100861.22
2023-04-18T19:50:57.370Z,100861.72
2023-04-18T19:56:26.116Z,100851.81
2023-04-18T20:02:05.020Z,100856.50
2023-04-18T20:07:37.038Z,100854.22
2023-04-18T20:13:06.133Z,100844.09
2023-04-18T20:24:51.506Z,100843.16
2023-04-18T20:30:19.018Z,100843.16
2023-04-18T20:35:47.673Z,100846.88
2023-04-18T20:41:18.428Z,100842.25
2023-04-18T20:46:47.534Z,100839.41
2023-04-18T20:52:16.166Z,100836.34
2023-04-18T20:57:45.379Z,100828.69
2023-04-18T21:03:14.172Z,100821.34
2023-04-18T21:08:41.406Z,100828.06
2023-04-18T21:14:09.436Z,100817.03
2023-04-18T21:19:37.634Z,100803.13
2023-04-18T21:25:05.340Z,100808.41
2023-04-18T21:30:32.096Z,100815.34
2023-04-18T21:35:59.450Z,100810.00
2023-04-18T21:41:27.989Z,100795.25
2023-04-18T21:46:56.520Z,100794.88
2023-04-18T21:52:25.837Z,100799.06
2023-04-18T21:57:54.509Z,100792.16
2023-04-18T22:03:22.604Z,100790.31
2023-04-18T22:08:51.842Z,100783.97
2023-04-18T22:14:20.504Z,100768.00
2023-04-18T22:19:49.950Z,100770.34
2023-04-18T22:25:17.011Z,100763.72
2023-04-18T22:30:44.346Z,100763.00
2023-04-18T22:36:11.521Z,100759.28
2023-04-18T22:41:38.632Z,100744.59
2023-04-18T22:47:06.625Z,100744.97
2023-04-18T22:52:34.874Z,100736.06
2023-04-18T22:58:03.607Z,100732.19
2023-04-18T23:03:34.739Z,100723.13
2023-04-18T23:09:03.337Z,100725.84
2023-04-18T23:14:30.504Z,100717.13
2023-04-18T23:19:57.562Z,100711.22
2023-04-18T23:25:24.572Z,100700.50
2023-04-18T23:30:51.326Z,100702.78
2023-04-18T23:36:18.645Z,100687.59
2023-04-18T23:41:45.870Z,100687.75
2023-04-18T23:47:13.335Z,100677.84
2023-04-18T23:52:40.882Z,100667.97
2023-04-18T23:58:08.868Z,100662.94
